Time;durP1;ratioP1;P1;durP2;ratioP2;P2;SDS_P1;SDS_P2;PMS_P1;PMS_P2;Temp;Humidity;BMP_temperature;BMP_pressure;BME280_temperature;BME280_humidity;BME280_pressure;Samples;Min_cycle;Max_cycle;Signal;HPM_P1;HPM_P2
2023/06/16 00:01:23;;;;;;;;;;;;;;;;;;5111494;28;19920;-87
2023/06/16 00:03:49;;;;;;;;;;;;;;;;;;5075405;28;19931;-87
2023/06/16 00:06:15;;;;;;;;;;;;;;;;;;5075271;28;19920;-87
2023/06/16 00:08:41;;;;;;;;;;;;;;;;;;5058573;28;20273;-84
2023/06/16 00:11:07;;;;;;;;;;;;;;;;;;5058131;28;19928;-87
2023/06/16 00:13:33;;;;;;;;;;;;;;;;;;5058438;28;19920;-86
2023/06/16 00:15:59;;;;;;;;;;;;;;;;;;5075713;28;20280;-87
2023/06/16 00:18:27;;;;;;;;;;;;;;;;;;5074681;28;19971;-86
2023/06/16 00:20:54;;;;;;;;;;;;;;;;;;5057789;28;19927;-83
2023/06/16 00:23:20;;;;;;;;;;;;;;;;;;5058400;28;20370;-87
2023/06/16 00:25:46;;;;;;;;;;;;;;;;;;5075239;28;20019;-87
2023/06/16 00:28:12;;;;;;;;;;;;;;;;;;5084330;28;19924;-87
2023/06/16 00:30:38;;;;;;;;;;;;;;;;;;5076527;28;19982;-87
2023/06/16 00:33:05;;;;;;;;;;;;;;;;;;5062341;28;20376;-87
2023/06/16 00:35:31;;;;;;;;;;;;;;;;;;5062340;28;20003;-86
2023/06/16 00:37:57;;;;;;;;;;;;;;;;;;5062081;28;20393;-86
2023/06/16 00:40:23;;;;;;;;;;;;;;;;;;5078109;28;20335;-85
2023/06/16 00:42:49;;;;;;;;;;;;;;;;;;5078715;28;19924;-86
2023/06/16 00:45:15;;;;;;;;;;;;;;;;;;5061633;28;19920;-86
2023/06/16 00:47:41;;;;;;;;;;;;;;;;;;5078497;28;19930;-86
2023/06/16 00:50:06;;;;;;;;;;;;;;;;;;5078208;28;19920;-86
2023/06/16 00:52:32;;;;;;;;;;;;;;;;;;5087748;28;19945;-86
2023/06/16 00:54:58;;;;;;;;;;;;;;;;;;5115135;28;19947;-86
2023/06/16 00:57:24;;;;;;;;;;;;;;;;;;5115960;28;20292;-85
2023/06/16 00:59:50;;;;;;;;;;;;;;;;;;5098176;28;19920;-85
2023/06/16 01:02:16;;;;;;;;;;;;;;;;;;5098831;28;20427;-86
2023/06/16 01:04:42;;;;;;;;;;;;;;;;;;5115576;28;19920;-86
2023/06/16 01:07:09;;;;;;;;;;;;;;;;;;5083624;28;20193;-86
2023/06/16 01:09:35;;;;;;;;;;;;;;;;;;5061104;28;19931;-86
2023/06/16 01:12:03;;;;;;;;;;;;;;;;;;5081927;28;20293;-86
2023/06/16 01:14:29;;;;;;;;;;;;;;;;;;5115448;28;19973;-85
2023/06/16 01:16:55;;;;;;;;;;;;;;;;;;5115195;28;19920;-85
2023/06/16 01:19:22;;;;;;;;;;;;;;;;;;5093563;28;19919;-82
2023/06/16 01:21:47;;;;;;;;;;;;;;;;;;5114006;28;19942;-86
2023/06/16 01:24:13;;;;;;;;;;;;;;;;;;5098092;28;19995;-87
2023/06/16 01:26:40;;;;;;;;;;;;;;;;;;5102106;28;19927;-86
2023/06/16 01:29:06;;;;;;;;;;;;;;;;;;5094609;28;19924;-86
2023/06/16 01:31:32;;;;;;;;;;;;;;;;;;5077274;28;19927;-86
2023/06/16 01:33:58;;;;;;;;;;;;;;;;;;5095014;28;20287;-86
2023/06/16 01:36:24;;;;;;;;;;;;;;;;;;5077798;28;19927;-86
2023/06/16 01:38:50;;;;;;;;;;;;;;;;;;5094330;28;19927;-86
2023/06/16 01:41:16;;;;;;;;;;;;;;;;;;5077008;28;20036;-85
2023/06/16 01:43:41;;;;;;;;;;;;;;;;;;5060430;28;20051;-83
2023/06/16 01:46:07;;;;;;;;;;;;;;;;;;5060986;28;19920;-86
2023/06/16 01:48:33;;;;;;;;;;;;;;;;;;5060544;28;20013;-86
2023/06/16 01:50:59;;;;;;;;;;;;;;;;;;5060239;28;20286;-87
2023/06/16 01:53:25;;;;;;;;;;;;;;;;;;5077063;28;19927;-86
2023/06/16 01:55:51;;;;;;;;;;;;;;;;;;5060743;28;20319;-86
2023/06/16 01:58:17;;;;;;;;;;;;;;;;;;5060606;28;19927;-87
2023/06/16 02:00:43;;;;;;;;;;;;;;;;;;5076714;28;19920;-87
2023/06/16 02:03:09;;;;;;;;;;;;;;;;;;5093730;28;19924;-86
2023/06/16 02:05:35;;;;;;;;;;;;;;;;;;5114200;28;19920;-87
2023/06/16 02:08:01;;;;;;;;;;;;;;;;;;5114341;28;19969;-87
2023/06/16 02:10:27;;;;;;;;;;;;;;;;;;5114372;28;20296;-86
2023/06/16 02:12:53;;;;;;;;;;;;;;;;;;5101062;28;19920;-86
2023/06/16 02:15:18;;;;;;;;;;;;;;;;;;5094179;28;19931;-86
2023/06/16 02:17:44;;;;;;;;;;;;;;;;;;5077184;28;20002;-86
2023/06/16 02:20:10;;;;;;;;;;;;;;;;;;5076814;28;19963;-86
2023/06/16 02:22:36;;;;;;;;;;;;;;;;;;5087808;28;19920;-86
2023/06/16 02:25:02;;;;;;;;;;;;;;;;;;5097194;28;19924;-87
2023/06/16 02:27:28;;;;;;;;;;;;;;;;;;5097347;28;19927;-86
2023/06/16 02:29:54;;;;;;;;;;;;;;;;;;5093506;28;19927;-85
2023/06/16 02:32:20;;;;;;;;;;;;;;;;;;5093498;28;19920;-86
2023/06/16 02:34:46;;;;;;;;;;;;;;;;;;5076453;28;19920;-86
2023/06/16 02:37:13;;;;;;;;;;;;;;;;;;5093512;28;19970;-86
2023/06/16 02:39:38;;;;;;;;;;;;;;;;;;5076669;28;19931;-85
2023/06/16 02:42:04;;;;;;;;;;;;;;;;;;5059440;28;19920;-86
2023/06/16 02:44:30;;;;;;;;;;;;;;;;;;5075943;28;20365;-85
2023/06/16 02:46:57;;;;;;;;;;;;;;;;;;5096434;28;20303;-86
2023/06/16 02:49:23;;;;;;;;;;;;;;;;;;5113043;28;20006;-85
2023/06/16 02:51:50;;;;;;;;;;;;;;;;;;5095343;28;20419;-86
2023/06/16 02:54:16;;;;;;;;;;;;;;;;;;5095258;28;19973;-85
2023/06/16 02:56:42;;;;;;;;;;;;;;;;;;5113508;28;20346;-85
2023/06/16 02:59:10;;;;;;;;;;;;;;;;;;5113432;28;20032;-86
2023/06/16 03:01:36;;;;;;;;;;;;;;;;;;5095937;28;19920;-85
2023/06/16 03:04:03;;;;;;;;;;;;;;;;;;5113122;28;19972;-86
2023/06/16 03:06:29;;;;;;;;;;;;;;;;;;5096352;28;20002;-86
2023/06/16 03:08:55;;;;;;;;;;;;;;;;;;5096270;28;19924;-86
2023/06/16 03:11:20;;;;;;;;;;;;;;;;;;5096101;28;19920;-85
2023/06/16 03:13:46;;;;;;;;;;;;;;;;;;5059507;28;19927;-86
2023/06/16 03:16:12;;;;;;;;;;;;;;;;;;5068331;28;19985;-85
2023/06/16 03:18:38;;;;;;;;;;;;;;;;;;5094109;28;19967;-85
2023/06/16 03:21:04;;;;;;;;;;;;;;;;;;5075980;28;19981;-86
2023/06/16 03:23:30;;;;;;;;;;;;;;;;;;5105665;28;19920;-86
2023/06/16 03:25:56;;;;;;;;;;;;;;;;;;5096108;28;20357;-85
2023/06/16 03:28:23;;;;;;;;;;;;;;;;;;5085433;28;19931;-85
2023/06/16 03:30:52;;;;;;;;;;;;;;;;;;5058594;28;19971;-85
2023/06/16 03:33:18;;;;;;;;;;;;;;;;;;5074754;28;19920;-86
2023/06/16 03:35:44;;;;;;;;;;;;;;;;;;5113341;28;20262;-87
2023/06/16 03:38:10;;;;;;;;;;;;;;;;;;5113032;28;19927;-85
2023/06/16 03:40:36;;;;;;;;;;;;;;;;;;5097887;28;19920;-86
2023/06/16 03:43:02;;;;;;;;;;;;;;;;;;5075565;28;19927;-86
2023/06/16 03:45:28;;;;;;;;;;;;;;;;;;5092299;28;19920;-86
2023/06/16 03:47:54;;;;;;;;;;;;;;;;;;5092565;28;20384;-86
2023/06/16 03:50:20;;;;;;;;;;;;;;;;;;5075143;28;19974;-87
2023/06/16 03:52:46;;;;;;;;;;;;;;;;;;5092811;28;20396;-87
2023/06/16 03:55:13;;;;;;;;;;;;;;;;;;5096047;28;19920;-87
2023/06/16 03:57:39;;;;;;;;;;;;;;;;;;5095814;28;20280;-87
2023/06/16 04:00:08;;;;;;;;;;;;;;;;;;5105883;28;20354;-86
2023/06/16 04:02:34;;;;;;;;;;;;;;;;;;5065570;28;19920;-86
2023/06/16 04:05:01;;;;;;;;;;;;;;;;;;5092403;28;19924;-87
2023/06/16 04:07:27;;;;;;;;;;;;;;;;;;5112653;28;19920;-86
2023/06/16 04:09:53;;;;;;;;;;;;;;;;;;5065662;28;19920;-86
2023/06/16 04:12:19;;;;;;;;;;;;;;;;;;5064316;28;19943;-86
2023/06/16 04:14:45;;;;;;;;;;;;;;;;;;5099474;28;20380;-86
2023/06/16 04:17:11;;;;;;;;;;;;;;;;;;5061898;28;19920;-87
2023/06/16 04:19:37;;;;;;;;;;;;;;;;;;5061587;28;19927;-87
2023/06/16 04:22:03;;;;;;;;;;;;;;;;;;5061900;28;19978;-87
2023/06/16 04:24:29;;;;;;;;;;;;;;;;;;5079122;28;19931;-86
2023/06/16 04:26:58;;;;;;;;;;;;;;;;;;5079105;28;20011;-87
2023/06/16 04:29:25;;;;;;;;;;;;;;;;;;5061628;28;19924;-87
2023/06/16 04:31:51;;;;;;;;;;;;;;;;;;5060947;28;20015;-87
2023/06/16 04:34:18;;;;;;;;;;;;;;;;;;5107119;28;20333;-87
2023/06/16 04:36:49;;;;;;;;;;;;;;;;;;5078568;28;19920;-87
2023/06/16 04:39:15;;;;;;;;;;;;;;;;;;5095627;28;19920;-87
2023/06/16 04:44:32;;;;;;;;;;;;;;;;;;5121754;27;20331;-87
2023/06/16 04:46:58;;;;;;;;;;;;;;;;;;5095676;28;19920;-87
2023/06/16 04:49:25;;;;;;;;;;;;;;;;;;5107179;28;19924;-84
2023/06/16 04:51:51;;;;;;;;;;;;;;;;;;5077468;28;19920;-87
2023/06/16 04:54:18;;;;;;;;;;;;;;;;;;5061745;28;20717;-87
2023/06/16 04:56:45;;;;;;;;;;;;;;;;;;5061476;28;19932;-87
2023/06/16 04:59:11;;;;;;;;;;;;;;;;;;5061766;28;19920;-87
2023/06/16 05:01:37;;;;;;;;;;;;;;;;;;5111870;28;19920;-87
2023/06/16 05:04:03;;;;;;;;;;;;;;;;;;5094994;28;20078;-87
2023/06/16 05:06:28;;;;;;;;;;;;;;;;;;5077763;28;19935;-87
2023/06/16 05:08:54;;;;;;;;;;;;;;;;;;5078318;28;19924;-87
2023/06/16 05:11:20;;;;;;;;;;;;;;;;;;5060827;28;20288;-88
2023/06/16 05:13:46;;;;;;;;;;;;;;;;;;5061483;28;19920;-87
2023/06/16 05:16:12;;;;;;;;;;;;;;;;;;5077509;28;20322;-87
2023/06/16 05:18:38;;;;;;;;;;;;;;;;;;5061441;28;19920;-87
2023/06/16 05:21:04;;;;;;;;;;;;;;;;;;5061329;28;19927;-87
2023/06/16 05:23:30;;;;;;;;;;;;;;;;;;5061678;28;19927;-90
2023/06/16 05:25:56;;;;;;;;;;;;;;;;;;5112381;28;19920;-90
2023/06/16 05:28:22;;;;;;;;;;;;;;;;;;5095032;28;19951;-87
2023/06/16 05:30:48;;;;;;;;;;;;;;;;;;5094776;28;19927;-90
2023/06/16 05:33:20;;;;;;;;;;;;;;;;;;5095331;28;19920;-90
2023/06/16 05:35:46;;;;;;;;;;;;;;;;;;5078342;28;19920;-90
2023/06/16 05:38:12;;;;;;;;;;;;;;;;;;5061882;28;20027;-90
2023/06/16 05:40:38;;;;;;;;;;;;;;;;;;5061227;28;19920;-90
2023/06/16 05:43:04;;;;;;;;;;;;;;;;;;5060785;28;19927;-90
2023/06/16 05:45:30;;;;;;;;;;;;;;;;;;5077869;28;20010;-90
2023/06/16 05:47:56;;;;;;;;;;;;;;;;;;5060850;28;20416;-90
2023/06/16 05:50:22;;;;;;;;;;;;;;;;;;5110891;28;19920;-90
2023/06/16 05:52:48;;;;;;;;;;;;;;;;;;5060429;28;19974;-90
2023/06/16 05:55:14;;;;;;;;;;;;;;;;;;5061133;28;20452;-89
2023/06/16 05:57:42;;;;;;;;;;;;;;;;;;5060651;28;19968;-90
2023/06/16 06:00:08;;;;;;;;;;;;;;;;;;5060535;28;20285;-88
2023/06/16 06:02:34;;;;;;;;;;;;;;;;;;5060348;28;19924;-89
2023/06/16 06:04:59;;;;;;;;;;;;;;;;;;5060640;28;19924;-86
2023/06/16 06:07:25;;;;;;;;;;;;;;;;;;5060438;28;20391;-91
2023/06/16 06:09:51;;;;;;;;;;;;;;;;;;5059749;28;19947;-90
2023/06/16 06:12:17;;;;;;;;;;;;;;;;;;5060484;28;20287;-90
2023/06/16 06:14:43;;;;;;;;;;;;;;;;;;5060502;28;19924;-90
2023/06/16 06:17:09;;;;;;;;;;;;;;;;;;5060385;28;20344;-89
2023/06/16 06:19:35;;;;;;;;;;;;;;;;;;5076798;28;19924;-90
2023/06/16 06:22:01;;;;;;;;;;;;;;;;;;5060057;28;19927;-90
2023/06/16 06:24:28;;;;;;;;;;;;;;;;;;5060187;28;19920;-91
2023/06/16 06:26:57;;;;;;;;;;;;;;;;;;5060522;28;19970;-91
2023/06/16 06:29:24;;;;;;;;;;;;;;;;;;5059669;28;20018;-89
2023/06/16 06:31:49;;;;;;;;;;;;;;;;;;5076344;28;19920;-89
2023/06/16 06:34:15;;;;;;;;;;;;;;;;;;5076751;28;19927;-90
2023/06/16 06:39:10;;;;;;;;;;;;;;;;;;5076697;28;19959;-89
2023/06/16 06:41:36;;;;;;;;;;;;;;;;;;5059288;28;19928;-89
2023/06/16 06:44:02;;;;;;;;;;;;;;;;;;5059765;28;19920;-89
2023/06/16 06:46:28;;;;;;;;;;;;;;;;;;5059838;28;20360;-89
2023/06/16 06:48:55;;;;;;;;;;;;;;;;;;5059710;28;20008;-90
2023/06/16 06:51:21;;;;;;;;;;;;;;;;;;5110728;28;19954;-90
2023/06/16 06:53:47;;;;;;;;;;;;;;;;;;5077058;28;20403;-87
2023/06/16 06:56:15;;;;;;;;;;;;;;;;;;5094937;28;20034;-90
2023/06/16 06:58:41;;;;;;;;;;;;;;;;;;5097776;28;19920;-90
2023/06/16 07:01:07;;;;;;;;;;;;;;;;;;5062553;28;20410;-90
2023/06/16 07:03:33;;;;;;;;;;;;;;;;;;5061013;28;19920;-90
2023/06/16 07:05:59;;;;;;;;;;;;;;;;;;5060623;28;19931;-90
2023/06/16 07:08:25;;;;;;;;;;;;;;;;;;5060481;28;20345;-90
2023/06/16 07:10:51;;;;;;;;;;;;;;;;;;5059484;28;19927;-92
2023/06/16 07:13:17;;;;;;;;;;;;;;;;;;5060668;28;19920;-91
2023/06/16 07:15:43;;;;;;;;;;;;;;;;;;5060372;28;19920;-81
2023/06/16 07:18:09;;;;;;;;;;;;;;;;;;5058644;28;20404;-81
2023/06/16 07:20:35;;;;;;;;;;;;;;;;;;5058462;28;19924;-81
2023/06/16 07:23:01;;;;;;;;;;;;;;;;;;5075797;28;19970;-81
2023/06/16 07:25:28;;;;;;;;;;;;;;;;;;5075542;28;20319;-82
2023/06/16 07:27:54;;;;;;;;;;;;;;;;;;5058498;28;19920;-81
2023/06/16 07:30:19;;;;;;;;;;;;;;;;;;5058105;28;20392;-82
2023/06/16 07:32:45;;;;;;;;;;;;;;;;;;5058709;28;19924;-82
2023/06/16 07:35:11;;;;;;;;;;;;;;;;;;5092152;28;19927;-81
2023/06/16 07:37:37;;;;;;;;;;;;;;;;;;5091844;28;19928;-82
2023/06/16 07:40:06;;;;;;;;;;;;;;;;;;5090945;28;19924;-82
2023/06/16 07:42:32;;;;;;;;;;;;;;;;;;5058330;28;20292;-82
2023/06/16 07:44:58;;;;;;;;;;;;;;;;;;5058372;28;19920;-81
2023/06/16 07:47:24;;;;;;;;;;;;;;;;;;5108749;28;19920;-81
2023/06/16 07:49:50;;;;;;;;;;;;;;;;;;5057869;28;20304;-81
2023/06/16 07:52:16;;;;;;;;;;;;;;;;;;5057521;28;19920;-81
2023/06/16 07:54:42;;;;;;;;;;;;;;;;;;5058206;28;19927;-81
2023/06/16 07:57:08;;;;;;;;;;;;;;;;;;5074784;28;19920;-81
2023/06/16 07:59:34;;;;;;;;;;;;;;;;;;5057689;28;19924;-82
2023/06/16 08:02:00;;;;;;;;;;;;;;;;;;5057835;28;19920;-82
2023/06/16 08:04:29;;;;;;;;;;;;;;;;;;5091412;28;19927;-81
2023/06/16 08:06:56;;;;;;;;;;;;;;;;;;5057719;28;19920;-81
2023/06/16 08:09:23;;;;;;;;;;;;;;;;;;5065266;28;19924;-82
2023/06/16 08:11:52;;;;;;;;;;;;;;;;;;5058180;28;19981;-81
2023/06/16 08:14:18;;;;;;;;;;;;;;;;;;5074932;28;19928;-81
2023/06/16 08:16:44;;;;;;;;;;;;;;;;;;5057864;28;19971;-81
2023/06/16 08:19:10;;;;;;;;;;;;;;;;;;5057537;28;19942;-81
2023/06/16 08:21:37;;;;;;;;;;;;;;;;;;5056970;28;19920;-81
2023/06/16 08:24:03;;;;;;;;;;;;;;;;;;5057466;28;19920;-81
2023/06/16 08:26:29;;;;;;;;;;;;;;;;;;5057228;28;20400;-81
2023/06/16 08:28:55;;;;;;;;;;;;;;;;;;5057324;28;19924;-80
2023/06/16 08:31:21;;;;;;;;;;;;;;;;;;5056961;28;19973;-81
2023/06/16 08:33:47;;;;;;;;;;;;;;;;;;5057866;28;19943;-80
2023/06/16 08:36:13;;;;;;;;;;;;;;;;;;5057464;28;20019;-80
2023/06/16 08:38:39;;;;;;;;;;;;;;;;;;5057661;28;19924;-80
2023/06/16 08:41:10;;;;;;;;;;;;;;;;;;5074355;28;20284;-80
2023/06/16 08:43:36;;;;;;;;;;;;;;;;;;5086455;28;20385;-80
2023/06/16 08:46:13;;;;;;;;;;;;;;;;;;5091585;28;19924;-80
2023/06/16 08:48:39;;;;;;;;;;;;;;;;;;5074311;28;19932;-80
2023/06/16 08:51:05;;;;;;;;;;;;;;;;;;5074763;28;19920;-80
2023/06/16 08:53:33;;;;;;;;;;;;;;;;;;5094768;28;19919;-80
2023/06/16 08:55:58;;;;;;;;;;;;;;;;;;5095041;28;19920;-80
2023/06/16 08:58:25;;;;;;;;;;;;;;;;;;5091930;28;19920;-81
2023/06/16 09:00:51;;;;;;;;;;;;;;;;;;5094163;28;19973;-80
2023/06/16 09:03:17;;;;;;;;;;;;;;;;;;5077452;28;20006;-81
2023/06/16 09:05:43;;;;;;;;;;;;;;;;;;5089982;28;20417;-81
2023/06/16 09:08:11;;;;;;;;;;;;;;;;;;5077912;28;20065;-82
2023/06/16 09:10:37;;;;;;;;;;;;;;;;;;5094363;28;19966;-81
2023/06/16 09:13:08;;;;;;;;;;;;;;;;;;5077456;28;20003;-81
2023/06/16 09:15:35;;;;;;;;;;;;;;;;;;5061157;28;19927;-81
2023/06/16 09:18:07;;;;;;;;;;;;;;;;;;5060819;28;19920;-81
2023/06/16 09:23:25;;;;;;;;;;;;;;;;;;5074013;28;19969;-81
2023/06/16 09:25:51;;;;;;;;;;;;;;;;;;5094077;28;20304;-81
2023/06/16 09:28:18;;;;;;;;;;;;;;;;;;5060360;28;19924;-81
2023/06/16 09:30:44;;;;;;;;;;;;;;;;;;5068489;28;19927;-81
2023/06/16 09:33:11;;;;;;;;;;;;;;;;;;5061807;28;19920;-81
2023/06/16 09:35:37;;;;;;;;;;;;;;;;;;5094173;28;19920;-81
2023/06/16 09:38:03;;;;;;;;;;;;;;;;;;5093884;28;20441;-81
2023/06/16 09:40:29;;;;;;;;;;;;;;;;;;5093490;28;19924;-81
2023/06/16 09:42:57;;;;;;;;;;;;;;;;;;5077267;28;19927;-81
2023/06/16 09:45:23;;;;;;;;;;;;;;;;;;5109444;28;20060;-81
2023/06/16 09:47:49;;;;;;;;;;;;;;;;;;5096904;28;19967;-81
2023/06/16 09:55:36;;;;;;;;;;;;;;;;;;5077122;28;20010;-81
2023/06/16 09:58:06;;;;;;;;;;;;;;;;;;5076887;28;19924;-81
2023/06/16 10:00:33;;;;;;;;;;;;;;;;;;5089896;28;19919;-81
2023/06/16 10:03:05;;;;;;;;;;;;;;;;;;5084688;28;20273;-81
2023/06/16 10:05:31;;;;;;;;;;;;;;;;;;5093956;28;20560;-81
2023/06/16 10:07:57;;;;;;;;;;;;;;;;;;5083675;28;20008;-81
2023/06/16 10:10:25;;;;;;;;;;;;;;;;;;5069446;28;19920;-81
2023/06/16 10:12:54;;;;;;;;;;;;;;;;;;5088924;28;19926;-81
2023/06/16 10:15:20;;;;;;;;;;;;;;;;;;5093731;28;20406;-81
2023/06/16 10:17:46;;;;;;;;;;;;;;;;;;5055563;28;19929;-82
2023/06/16 10:20:13;;;;;;;;;;;;;;;;;;5066725;28;19920;-81
2023/06/16 10:22:38;;;;;;;;;;;;;;;;;;5076167;28;20006;-81
2023/06/16 10:25:05;;;;;;;;;;;;;;;;;;5093525;28;19990;-81
2023/06/16 10:27:31;;;;;;;;;;;;;;;;;;5065678;28;19928;-81
2023/06/16 10:29:57;;;;;;;;;;;;;;;;;;5089308;28;19924;-81
2023/06/16 10:32:24;;;;;;;;;;;;;;;;;;5062431;28;19920;-81
2023/06/16 10:34:51;;;;;;;;;;;;;;;;;;5074230;28;19920;-82
2023/06/16 10:37:29;;;;;;;;;;;;;;;;;;5090825;28;19920;-80
2023/06/16 10:39:55;;;;;;;;;;;;;;;;;;5092587;28;20415;-81
2023/06/16 10:42:21;;;;;;;;;;;;;;;;;;5059436;28;19952;-81
2023/06/16 10:44:47;;;;;;;;;;;;;;;;;;5059075;28;20035;-81
2023/06/16 10:47:13;;;;;;;;;;;;;;;;;;5109943;28;19927;-81
2023/06/16 10:49:39;;;;;;;;;;;;;;;;;;5109408;28;19931;-81
2023/06/16 10:52:04;;;;;;;;;;;;;;;;;;5075512;28;19920;-81
2023/06/16 10:54:30;;;;;;;;;;;;;;;;;;5093095;28;20365;-81
2023/06/16 10:56:56;;;;;;;;;;;;;;;;;;5093038;28;19920;-80
2023/06/16 10:59:22;;;;;;;;;;;;;;;;;;5092169;28;19924;-82
2023/06/16 11:01:48;;;;;;;;;;;;;;;;;;5058505;28;20377;-81
2023/06/16 11:04:14;;;;;;;;;;;;;;;;;;5058791;28;19967;-80
2023/06/16 11:06:40;;;;;;;;;;;;;;;;;;5075492;28;19920;-81
2023/06/16 11:09:06;;;;;;;;;;;;;;;;;;5058292;28;20354;-81
2023/06/16 11:11:36;;;;;;;;;;;;;;;;;;5058326;28;19920;-81
2023/06/16 11:14:02;;;;;;;;;;;;;;;;;;5058218;28;19920;-81
2023/06/16 11:16:27;;;;;;;;;;;;;;;;;;5109021;28;20291;-81
2023/06/16 11:18:55;;;;;;;;;;;;;;;;;;5058587;28;19927;-80
2023/06/16 11:21:21;;;;;;;;;;;;;;;;;;5058377;28;20049;-80
2023/06/16 11:23:47;;;;;;;;;;;;;;;;;;5075208;28;19920;-81
2023/06/16 11:26:13;;;;;;;;;;;;;;;;;;5074982;28;19943;-81
2023/06/16 11:28:40;;;;;;;;;;;;;;;;;;5058648;28;20285;-81
2023/06/16 11:31:06;;;;;;;;;;;;;;;;;;5058055;28;19927;-81
2023/06/16 11:33:33;;;;;;;;;;;;;;;;;;5058708;28;20289;-81
2023/06/16 11:35:59;;;;;;;;;;;;;;;;;;5058525;28;19969;-81
2023/06/16 11:38:25;;;;;;;;;;;;;;;;;;5058143;28;19920;-81
2023/06/16 11:40:53;;;;;;;;;;;;;;;;;;5057903;28;19920;-80
2023/06/16 11:43:19;;;;;;;;;;;;;;;;;;5058366;28;20380;-81
2023/06/16 11:45:45;;;;;;;;;;;;;;;;;;5058406;28;19920;-81
2023/06/16 11:48:11;;;;;;;;;;;;;;;;;;5058019;28;20028;-80
2023/06/16 11:50:37;;;;;;;;;;;;;;;;;;5108274;28;20032;-80
2023/06/16 11:53:03;;;;;;;;;;;;;;;;;;5057898;28;19969;-81
2023/06/16 11:55:29;;;;;;;;;;;;;;;;;;5108933;28;20296;-81
2023/06/16 11:57:57;;;;;;;;;;;;;;;;;;5058405;28;19920;-80
2023/06/16 12:00:23;;;;;;;;;;;;;;;;;;5057759;28;19928;-80
2023/06/16 12:02:48;;;;;;;;;;;;;;;;;;5075225;28;19920;-80
2023/06/16 12:05:14;;;;;;;;;;;;;;;;;;5058259;28;19985;-81
2023/06/16 12:07:41;;;;;;;;;;;;;;;;;;5058204;28;19920;-81
2023/06/16 12:10:07;;;;;;;;;;;;;;;;;;5057519;28;19924;-81
2023/06/16 12:15:07;;;;;;;;;;;;;;;;;;5074654;28;19920;-81
2023/06/16 12:17:33;;;;;;;;;;;;;;;;;;5057923;28;20335;-81
2023/06/16 12:20:15;;;;;;;;;;;;;;;;;;5057353;28;20075;-81
2023/06/16 12:22:42;;;;;;;;;;;;;;;;;;5058160;28;20783;-81
2023/06/16 12:25:08;;;;;;;;;;;;;;;;;;5057955;28;19920;-81
2023/06/16 12:27:35;;;;;;;;;;;;;;;;;;5061504;28;19943;-81
2023/06/16 12:30:03;;;;;;;;;;;;;;;;;;5078019;28;19984;-82
2023/06/16 12:32:29;;;;;;;;;;;;;;;;;;5061838;28;19968;-82
2023/06/16 12:34:55;;;;;;;;;;;;;;;;;;5061754;28;19921;-82
2023/06/16 12:37:21;;;;;;;;;;;;;;;;;;5095098;28;19927;-84
2023/06/16 12:39:47;;;;;;;;;;;;;;;;;;5061865;28;19920;-85
2023/06/16 12:42:13;;;;;;;;;;;;;;;;;;5065812;28;19919;-84
2023/06/16 12:44:51;;;;;;;;;;;;;;;;;;5095550;28;19920;-85
2023/06/16 12:47:17;;;;;;;;;;;;;;;;;;5095079;28;19931;-85
2023/06/16 12:49:43;;;;;;;;;;;;;;;;;;5077329;28;19924;-86
2023/06/16 12:52:09;;;;;;;;;;;;;;;;;;5061431;28;20604;-85
2023/06/16 12:54:45;;;;;;;;;;;;;;;;;;5094997;28;19982;-84
2023/06/16 12:57:11;;;;;;;;;;;;;;;;;;5102043;28;20448;-84
2023/06/16 12:59:37;;;;;;;;;;;;;;;;;;5082753;28;20377;-85
2023/06/16 13:02:03;;;;;;;;;;;;;;;;;;5061390;28;19927;-85
2023/06/16 13:04:29;;;;;;;;;;;;;;;;;;5060991;28;19997;-85
2023/06/16 13:06:55;;;;;;;;;;;;;;;;;;5061242;28;19970;-85
2023/06/16 13:09:21;;;;;;;;;;;;;;;;;;5071826;28;19923;-85
2023/06/16 13:11:47;;;;;;;;;;;;;;;;;;5099001;28;19927;-84
2023/06/16 13:14:15;;;;;;;;;;;;;;;;;;5060835;28;19928;-85
2023/06/16 13:16:42;;;;;;;;;;;;;;;;;;5077324;28;19967;-84
2023/06/16 13:19:08;;;;;;;;;;;;;;;;;;5060561;28;19942;-84
2023/06/16 13:21:34;;;;;;;;;;;;;;;;;;5060433;28;19920;-85
2023/06/16 13:24:00;;;;;;;;;;;;;;;;;;5060314;28;19932;-85
2023/06/16 13:26:44;;;;;;;;;;;;;;;;;;5060857;28;19920;-84
2023/06/16 13:29:10;;;;;;;;;;;;;;;;;;5100810;28;19927;-84
2023/06/16 13:31:35;;;;;;;;;;;;;;;;;;5114435;28;19927;-84
2023/06/16 13:34:19;;;;;;;;;;;;;;;;;;5112165;28;19920;-85
2023/06/16 13:36:45;;;;;;;;;;;;;;;;;;5060798;28;19959;-84
2023/06/16 13:39:13;;;;;;;;;;;;;;;;;;5110122;28;19920;-85
2023/06/16 13:41:39;;;;;;;;;;;;;;;;;;5076219;28;20014;-84
2023/06/16 13:44:05;;;;;;;;;;;;;;;;;;5099836;28;20371;-84
2023/06/16 13:46:31;;;;;;;;;;;;;;;;;;5093986;28;19920;-84
2023/06/16 13:48:56;;;;;;;;;;;;;;;;;;5060010;28;20045;-84
2023/06/16 13:51:22;;;;;;;;;;;;;;;;;;5059901;28;20373;-83
2023/06/16 13:53:48;;;;;;;;;;;;;;;;;;5060396;28;19920;-84
2023/06/16 13:56:14;;;;;;;;;;;;;;;;;;5060059;28;19920;-82
2023/06/16 13:58:40;;;;;;;;;;;;;;;;;;5060277;28;19931;-82
2023/06/16 14:01:06;;;;;;;;;;;;;;;;;;5074464;28;19919;-82
2023/06/16 14:03:32;;;;;;;;;;;;;;;;;;5077388;28;19965;-82
2023/06/16 14:05:58;;;;;;;;;;;;;;;;;;5093741;28;19928;-82
2023/06/16 14:08:24;;;;;;;;;;;;;;;;;;5076594;28;20014;-83
2023/06/16 14:10:53;;;;;;;;;;;;;;;;;;5076467;28;20315;-83
2023/06/16 14:13:19;;;;;;;;;;;;;;;;;;5059829;28;19966;-84
2023/06/16 14:18:16;;;;;;;;;;;;;;;;;;5076516;28;19920;-84
2023/06/16 14:20:42;;;;;;;;;;;;;;;;;;5059161;28;19976;-84
2023/06/16 14:23:08;;;;;;;;;;;;;;;;;;5075149;28;19919;-83
2023/06/16 14:25:52;;;;;;;;;;;;;;;;;;5093704;28;19920;-83
2023/06/16 14:28:24;;;;;;;;;;;;;;;;;;5093959;28;19924;-83
2023/06/16 14:30:50;;;;;;;;;;;;;;;;;;5092584;28;19931;-85
2023/06/16 14:33:16;;;;;;;;;;;;;;;;;;5110173;28;19920;-84
2023/06/16 14:35:42;;;;;;;;;;;;;;;;;;5092968;28;19958;-84
2023/06/16 14:38:08;;;;;;;;;;;;;;;;;;5059249;28;20007;-84
2023/06/16 14:40:52;;;;;;;;;;;;;;;;;;5058986;28;19951;-84
2023/06/16 14:43:18;;;;;;;;;;;;;;;;;;5059357;28;19927;-84
2023/06/16 14:45:44;;;;;;;;;;;;;;;;;;5059350;28;19920;-83
2023/06/16 14:48:10;;;;;;;;;;;;;;;;;;5058988;28;19935;-84
2023/06/16 14:50:36;;;;;;;;;;;;;;;;;;5060142;28;19920;-84
2023/06/16 14:53:02;;;;;;;;;;;;;;;;;;5101446;28;20265;-84
2023/06/16 14:55:28;;;;;;;;;;;;;;;;;;5093071;28;19924;-84
2023/06/16 14:57:54;;;;;;;;;;;;;;;;;;5092345;28;19927;-84
2023/06/16 15:00:20;;;;;;;;;;;;;;;;;;5091883;28;20020;-85
2023/06/16 15:02:46;;;;;;;;;;;;;;;;;;5075674;28;19920;-84
2023/06/16 15:05:13;;;;;;;;;;;;;;;;;;5092565;28;20348;-84
2023/06/16 15:07:39;;;;;;;;;;;;;;;;;;5092702;28;20377;-84
2023/06/16 15:10:05;;;;;;;;;;;;;;;;;;5058191;28;19931;-84
2023/06/16 15:12:31;;;;;;;;;;;;;;;;;;5058796;28;19920;-84
2023/06/16 15:14:57;;;;;;;;;;;;;;;;;;5058846;28;20293;-85
2023/06/16 15:17:23;;;;;;;;;;;;;;;;;;5058947;28;19927;-83
2023/06/16 15:19:50;;;;;;;;;;;;;;;;;;5058208;28;19920;-84
2023/06/16 15:22:16;;;;;;;;;;;;;;;;;;5058132;28;19927;-84
2023/06/16 15:24:47;;;;;;;;;;;;;;;;;;5058520;28;19920;-84
2023/06/16 15:27:13;;;;;;;;;;;;;;;;;;5114047;27;19931;-84
2023/06/16 15:29:39;;;;;;;;;;;;;;;;;;5080405;28;19931;-84
2023/06/16 15:32:15;;;;;;;;;;;;;;;;;;5067166;28;20380;-84
2023/06/16 15:34:41;;;;;;;;;;;;;;;;;;5108916;28;20292;-84
2023/06/16 15:37:07;;;;;;;;;;;;;;;;;;5088422;28;19924;-85
2023/06/16 15:39:34;;;;;;;;;;;;;;;;;;5111297;28;20265;-84
2023/06/16 15:42:02;;;;;;;;;;;;;;;;;;5111700;28;19924;-84
2023/06/16 15:44:28;;;;;;;;;;;;;;;;;;5075100;28;19920;-84
2023/06/16 15:46:58;;;;;;;;;;;;;;;;;;5093999;28;20463;-85
2023/06/16 15:49:25;;;;;;;;;;;;;;;;;;5065718;28;19970;-84
2023/06/16 15:51:51;;;;;;;;;;;;;;;;;;5091585;28;19920;-84
2023/06/16 15:54:17;;;;;;;;;;;;;;;;;;5081976;28;19928;-84
2023/06/16 15:59:48;;;;;;;;;;;;;;;;;;5099017;28;19919;-85
2023/06/16 16:02:13;;;;;;;;;;;;;;;;;;5090971;28;19927;-84
2023/06/16 16:04:40;;;;;;;;;;;;;;;;;;5058368;28;20018;-84
2023/06/16 16:07:06;;;;;;;;;;;;;;;;;;5057819;28;19923;-84
2023/06/16 16:09:31;;;;;;;;;;;;;;;;;;5107727;28;19973;-84
2023/06/16 16:11:57;;;;;;;;;;;;;;;;;;5074342;28;20441;-83
2023/06/16 16:14:23;;;;;;;;;;;;;;;;;;5057350;28;19920;-84
2023/06/16 16:16:49;;;;;;;;;;;;;;;;;;5057677;28;20292;-84
2023/06/16 16:19:16;;;;;;;;;;;;;;;;;;5065272;28;19920;-83
2023/06/16 16:21:42;;;;;;;;;;;;;;;;;;5102058;28;20342;-83
2023/06/16 16:24:25;;;;;;;;;;;;;;;;;;5100947;28;19924;-84
2023/06/16 16:26:51;;;;;;;;;;;;;;;;;;5085010;28;19920;-83
2023/06/16 16:29:20;;;;;;;;;;;;;;;;;;5060878;28;19928;-83
2023/06/16 16:31:46;;;;;;;;;;;;;;;;;;5062309;28;19924;-84
2023/06/16 16:34:12;;;;;;;;;;;;;;;;;;5097413;28;19920;-85
2023/06/16 16:36:38;;;;;;;;;;;;;;;;;;5081814;28;19969;-85
2023/06/16 16:39:04;;;;;;;;;;;;;;;;;;5057270;28;19928;-85
2023/06/16 16:41:33;;;;;;;;;;;;;;;;;;5066859;28;19971;-84
2023/06/16 16:43:59;;;;;;;;;;;;;;;;;;5104198;28;19959;-84
2023/06/16 16:46:25;;;;;;;;;;;;;;;;;;5073733;28;19955;-84
2023/06/16 16:48:51;;;;;;;;;;;;;;;;;;5057255;28;19973;-84
2023/06/16 16:51:22;;;;;;;;;;;;;;;;;;5108423;28;19934;-84
2023/06/16 16:53:47;;;;;;;;;;;;;;;;;;5076778;28;20006;-84
2023/06/16 16:56:15;;;;;;;;;;;;;;;;;;5057699;28;19999;-84
2023/06/16 16:58:41;;;;;;;;;;;;;;;;;;5059082;28;19920;-85
2023/06/16 17:01:07;;;;;;;;;;;;;;;;;;5090502;28;20035;-83
2023/06/16 17:03:33;;;;;;;;;;;;;;;;;;5063379;28;19926;-83